All
Benambra Airport YBRA Weather
There is no TAF data available at YBRA or any nearby airports.
There is no METAR data available at YBRA. Showing METAR data for YHOT (21 mi W).
Recent MHU METAR history (no data for YBRA)
| Date | Time (AEST) | Flight Rules | Wind Dir. | Speed | Type | Height AGL (ft) | Visibility | Temp (°C) | Temp (°F) | Dew Point (°C) | Dew Point (°F) | Rel. Humid. | Pressure | Density Altitude | Remarks |
|---|---|---|---|---|---|---|---|---|---|---|---|---|---|---|---|
| 06-May | 09:00AM | VFR | 330° | 7 kt | 10000 meters | 9° | 48° | -1° | 30° | 49% | 1020 mb | 4,290 ft | |||
| 06-May | 08:00AM | VFR | 340° | 2 kt | 10000 meters | 5° | 41° | 0° | 32° | 70% | 1020 mb | 3,810 ft | |||
| 06-May | 07:00AM | VFR | 340° | 5 kt | 10000 meters | 1° | 33° | -1° | 30° | 86% | 1020 mb | 3,330 ft | |||
| 06-May | 06:00AM | VFR | 330° | 5 kt | 10000 meters | 2° | 35° | -1° | 30° | 80% | 1020 mb | 3,450 ft | |||
| 06-May | 05:00AM | VFR | 330° | 7 kt | 10000 meters | 2° | 35° | 0° | 32° | 87% | 1020 mb | 3,450 ft | |||
| 06-May | 04:00AM | VFR | 330° | 5 kt | 10000 meters | 1° | 33° | -2° | 28° | 80% | 1020 mb | 3,330 ft | |||
| 06-May | 03:00AM | VFR | 320° | 5 kt | 10000 meters | 1° | 33° | -1° | 30° | 86% | 1020 mb | 3,330 ft | |||
| 06-May | 02:00AM | VFR | 340° | 4 kt | 10000 meters | 1° | 33° | 1° | 33° | 100% | 1021 mb | 3,300 ft | |||
| 06-May | 01:00AM | VFR | 340° | 4 kt | 10000 meters |
0° | 32° | 0° | 32° | 100% | 1021 mb | 3,180 ft | |||
| 06-May | 12:00AM | VFR | 340° | 5 kt | 9000 meters |
2° | 35° | 2° | 35° | 100% | 1021 mb | 3,420 ft | |||
| 05-May | 11:00PM | MVFR | 340° | 3 kt | 6000 meters |
1° | 33° | 0° | 32° | 93% | 1022 mb | 3,271 ft | |||
| 05-May | 10:00PM | VFR | 350° | 4 kt | 10000 meters | 2° | 35° | 2° | 35° | 100% | 1022 mb | 3,391 ft | |||
| 05-May | 09:00PM | VFR | 320° | 2 kt | 10000 meters | 1° | 33° | 1° | 33° | 100% | 1022 mb | 3,271 ft | |||
| 05-May | 08:00PM | VFR | 320° | 3 kt | 10000 meters | 3° | 37° | 2° | 35° | 93% | 1022 mb | 3,511 ft | |||
| 05-May | 07:00PM | VFR | 330° | 3 kt | 10000 meters | 4° | 39° | 3° | 37° | 93% | 1021 mb | 3,660 ft | |||
| 05-May | 06:00PM | VFR | 330° | 4 kt | 10000 meters | 5° | 41° | 3° | 37° | 87% | 1021 mb | 3,780 ft | |||
| 05-May | 05:00PM | VFR | 270° | 3 kt | 10000 meters | 9° | 48° | 3° | 37° | 66% | 1020 mb | 4,290 ft | |||
| 05-May | 04:00PM | VFR | 220° | 5 kt | 10000 meters | 10° | 50° | 3° | 37° | 62% | 1020 mb | 4,410 ft | |||
| 05-May | 03:00PM | VFR | 220° | 6 kt | 10000 meters | 11° | 51° | 2° | 35° | 54% | 1019 mb | 4,559 ft | |||
| 05-May | 02:00PM | VFR | 290° | 5 kt | 10000 meters | 11° | 51° | 3° | 37° | 58% | 1019 mb | 4,559 ft | |||
| 05-May | 01:00PM | VFR | 270° | 6 kt | 10000 meters | 11° | 51° | 2° | 35° | 54% | 1019 mb | 4,559 ft | |||
| 05-May | 12:00PM | VFR | 270° | 5 kt | 10000 meters | 11° | 51° | 3° | 37° | 58% | 1019 mb | 4,559 ft | |||
| 05-May | 11:00AM | VFR | 320° | 5 kt | 10000 meters | 10° | 50° | 3° | 37° | 62% | 1019 mb | 4,439 ft | |||
| 05-May | 10:04AM | VFR | 260° | 10 kt | Few |
1,500 |
10000 meters | 8° | 46° | 4° | 39° | 76% | 1018 mb | 4,229 ft |
Login
| Your browser is unsupported. upgrade your browser |
